createdAt,value
2023-02-14T00:03:46.953Z,100
2023-02-14T00:08:47.026Z,100
2023-02-14T00:13:47.135Z,100
2023-02-14T00:18:46.093Z,100
2023-02-14T00:23:46.147Z,100
2023-02-14T00:28:46.210Z,100
2023-02-14T00:33:45.860Z,100
2023-02-14T00:38:46.795Z,100
2023-02-14T00:43:43.146Z,100
2023-02-14T00:48:43.166Z,100
2023-02-14T00:53:42.716Z,100
2023-02-14T00:58:42.656Z,100
2023-02-14T01:03:39.960Z,100
2023-02-14T01:08:39.781Z,100
2023-02-14T01:13:39.221Z,100
2023-02-14T01:18:38.746Z,100
2023-02-14T01:23:37.885Z,100
2023-02-14T01:28:37.660Z,100
2023-02-14T01:33:37.919Z,100
2023-02-14T01:38:37.525Z,100
2023-02-14T01:43:38.538Z,100
2023-02-14T01:48:34.703Z,100
2023-02-14T01:53:34.481Z,100
2023-02-14T01:58:34.149Z,100
2023-02-14T01:59:55.992Z,100
2023-02-14T02:04:55.762Z,100
2023-02-14T02:09:56.386Z,100
2023-02-14T02:14:56.071Z,100
2023-02-14T02:19:57.140Z,100
2023-02-14T02:24:53.075Z,100
2023-02-14T02:29:53.420Z,100
2023-02-14T02:34:52.949Z,101
2023-02-14T02:39:52.828Z,100
2023-02-14T02:44:49.981Z,100
2023-02-14T02:49:49.641Z,101
2023-02-14T02:54:48.800Z,101
2023-02-14T02:58:53.774Z,101
2023-02-14T03:03:53.614Z,101
2023-02-14T03:08:53.134Z,101
2023-02-14T03:13:53.387Z,101
2023-02-14T03:18:52.645Z,101
2023-02-14T03:23:54.051Z,101
2023-02-14T03:28:51.066Z,101
2023-02-14T03:33:50.395Z,100
2023-02-14T03:38:50.079Z,101
2023-02-14T03:43:49.662Z,101
2023-02-14T03:48:49.610Z,101
2023-02-14T03:53:49.297Z,101
2023-02-14T03:58:49.017Z,101
2023-02-14T04:03:50.173Z,101
2023-02-14T04:08:46.412Z,101
2023-02-14T04:13:46.668Z,101
2023-02-14T04:18:45.555Z,101
2023-02-14T04:23:45.970Z,101
2023-02-14T04:28:43.015Z,101
2023-02-14T04:33:42.983Z,101
2023-02-14T04:38:42.295Z,101
2023-02-14T04:43:41.891Z,101
2023-02-14T04:48:40.767Z,101
2023-02-14T04:53:40.569Z,101
2023-02-14T04:58:40.576Z,101
2023-02-14T05:03:40.210Z,101
2023-02-14T05:08:37.888Z,101
2023-02-14T05:13:37.712Z,101
2023-02-14T05:18:37.310Z,101
2023-02-14T05:23:36.754Z,101
2023-02-14T05:28:36.488Z,101
2023-02-14T05:33:35.856Z,101
2023-02-14T05:38:36.359Z,101
2023-02-14T05:43:35.984Z,101
2023-02-14T05:48:36.979Z,101
2023-02-14T05:53:33.328Z,101
2023-02-14T05:58:33.117Z,101
2023-02-14T05:59:54.927Z,101
2023-02-14T06:04:55.012Z,101
2023-02-14T06:09:52.489Z,101
2023-02-14T06:14:52.089Z,101
2023-02-14T06:19:51.580Z,101
2023-02-14T06:24:51.259Z,101
2023-02-14T06:29:50.487Z,101
2023-02-14T06:34:50.462Z,101
2023-02-14T06:39:50.493Z,101
2023-02-14T06:44:50.746Z,101
2023-02-14T06:49:48.121Z,101
2023-02-14T06:54:48.161Z,101
2023-02-14T06:59:11.780Z,101
2023-02-14T07:04:11.868Z,101
2023-02-14T07:09:10.909Z,101
2023-02-14T07:14:10.930Z,101
2023-02-14T07:19:10.757Z,101
2023-02-14T07:24:10.479Z,101
2023-02-14T07:29:11.607Z,101
2023-02-14T07:34:07.802Z,101
2023-02-14T07:39:07.888Z,101
2023-02-14T07:44:07.260Z,101
2023-02-14T07:49:07.526Z,101
2023-02-14T07:54:04.878Z,101
2023-02-14T07:58:51.077Z,101
2023-02-14T08:03:50.520Z,101
2023-02-14T08:08:50.224Z,101
2023-02-14T08:13:48.861Z,101
2023-02-14T08:18:48.733Z,101
2023-02-14T08:23:49.104Z,101
2023-02-14T08:28:47.740Z,101
2023-02-14T08:33:47.762Z,101
2023-02-14T08:38:46.788Z,101
2023-02-14T08:43:46.597Z,101
2023-02-14T08:48:48.129Z,101
2023-02-14T08:53:43.979Z,101
2023-02-14T08:58:44.133Z,101
2023-02-14T09:03:43.770Z,101
2023-02-14T09:08:43.713Z,101
2023-02-14T09:13:41.476Z,101
2023-02-14T09:18:41.169Z,101
2023-02-14T09:23:40.111Z,101
2023-02-14T09:28:40.248Z,101
2023-02-14T09:33:39.701Z,101
2023-02-14T09:38:39.381Z,101
2023-02-14T09:43:39.270Z,101
2023-02-14T09:48:39.113Z,101
2023-02-14T09:53:40.297Z,101
2023-02-14T09:58:37.301Z,101
2023-02-14T09:59:59.132Z,101
2023-02-14T10:04:59.486Z,101
2023-02-14T10:09:58.391Z,101
2023-02-14T10:14:58.473Z,100
2023-02-14T10:19:58.547Z,101
2023-02-14T10:29:59.683Z,101
2023-02-14T10:34:55.765Z,101
2023-02-14T10:39:55.758Z,100
2023-02-14T10:44:54.971Z,100
2023-02-14T10:49:55.298Z,100
2023-02-14T10:54:52.909Z,100
2023-02-14T10:58:55.521Z,100
2023-02-14T11:03:55.194Z,100
2023-02-14T11:13:54.140Z,100
2023-02-14T11:18:53.675Z,100
2023-02-14T11:23:54.043Z,100
2023-02-14T11:28:53.536Z,100
2023-02-14T11:33:52.084Z,99
2023-02-14T11:38:51.813Z,99
2023-02-14T11:43:51.419Z,99
2023-02-14T11:48:51.178Z,99
2023-02-14T11:53:50.649Z,99
2023-02-14T11:58:50.101Z,98
2023-02-14T12:03:50.493Z,98
2023-02-14T12:08:50.200Z,98
2023-02-14T12:13:51.519Z,97
2023-02-14T12:18:47.835Z,96
2023-02-14T12:23:47.879Z,96
2023-02-14T12:28:47.127Z,95
2023-02-14T12:38:44.842Z,93
2023-02-14T12:43:44.478Z,93
2023-02-14T12:48:44.498Z,92
2023-02-14T12:53:44.998Z,88
2023-02-14T12:58:44.608Z,84
2023-02-14T13:03:45.249Z,80
2023-02-14T13:08:45.450Z,79
2023-02-14T13:13:46.181Z,77
2023-02-14T13:18:43.700Z,77
2023-02-14T13:28:43.873Z,73
2023-02-14T13:33:43.548Z,71
2023-02-14T13:38:42.862Z,70
2023-02-14T13:43:42.359Z,70
2023-02-14T13:48:42.762Z,68
2023-02-14T13:53:42.900Z,69
2023-02-14T13:58:43.641Z,68
2023-02-14T14:03:40.007Z,66
2023-02-14T14:08:40.004Z,65
2023-02-14T14:13:39.318Z,65
2023-02-14T14:18:39.566Z,65
2023-02-14T14:23:36.754Z,67
2023-02-14T14:28:37.008Z,66
2023-02-14T14:33:35.979Z,65
2023-02-14T14:38:36.110Z,65
2023-02-14T14:43:35.322Z,65
2023-02-14T14:48:35.220Z,67
2023-02-14T14:53:34.709Z,64
2023-02-14T14:58:34.431Z,64
2023-02-14T14:59:56.432Z,64
2023-02-14T15:04:56.150Z,65
2023-02-14T15:09:55.079Z,68
2023-02-14T15:14:54.860Z,67
2023-02-14T15:19:53.665Z,67
2023-02-14T15:24:53.517Z,68
2023-02-14T15:29:53.275Z,69
2023-02-14T15:34:52.733Z,69
2023-02-14T15:39:53.629Z,68
2023-02-14T15:44:49.936Z,69
2023-02-14T15:49:49.612Z,70
2023-02-14T15:54:48.966Z,71
2023-02-14T15:58:52.168Z,72
2023-02-14T16:03:49.535Z,73
2023-02-14T16:08:49.095Z,73
2023-02-14T16:13:48.491Z,76
2023-02-14T16:18:48.083Z,77
2023-02-14T16:23:47.527Z,79
2023-02-14T16:28:47.353Z,80
2023-02-14T16:33:46.701Z,81
2023-02-14T16:38:46.275Z,82
2023-02-14T16:43:43.656Z,83
2023-02-14T16:48:43.421Z,84
2023-02-14T16:53:42.851Z,84
2023-02-14T16:58:42.223Z,85
2023-02-14T17:00:03.772Z,85
2023-02-14T17:05:03.517Z,86
2023-02-14T17:10:03.286Z,86
2023-02-14T17:15:02.903Z,87
2023-02-14T17:20:03.713Z,88
2023-02-14T17:24:59.805Z,88
2023-02-14T17:30:00.571Z,89
2023-02-14T17:34:59.298Z,89
2023-02-14T17:39:59.089Z,89
2023-02-14T17:44:56.642Z,90
2023-02-14T17:49:56.134Z,91
2023-02-14T17:54:55.547Z,91
2023-02-14T17:59:16.603Z,92
2023-02-14T18:04:14.840Z,92
2023-02-14T18:09:14.783Z,93
2023-02-14T18:14:14.215Z,93
2023-02-14T18:19:13.739Z,93
2023-02-14T18:24:11.674Z,93
2023-02-14T18:29:11.529Z,93
2023-02-14T18:34:10.574Z,93
2023-02-14T18:39:10.621Z,93
2023-02-14T18:44:09.539Z,93
2023-02-14T18:49:09.026Z,93
2023-02-14T18:54:09.333Z,93
2023-02-14T18:59:49.377Z,93
2023-02-14T19:03:57.005Z,94
2023-02-14T19:08:54.906Z,94
2023-02-14T19:13:54.334Z,94
2023-02-14T19:18:54.055Z,94
2023-02-14T19:23:53.589Z,94
2023-02-14T19:28:53.547Z,94
2023-02-14T19:33:53.398Z,94
2023-02-14T19:38:54.162Z,95
2023-02-14T19:43:51.503Z,95
2023-02-14T19:48:51.018Z,95
2023-02-14T19:53:50.138Z,95
2023-02-14T19:58:57.760Z,95
2023-02-14T20:03:49.174Z,95
2023-02-14T20:08:48.401Z,96
2023-02-14T20:13:48.495Z,96
2023-02-14T20:18:49.415Z,96
2023-02-14T20:23:46.043Z,96
2023-02-14T20:28:45.949Z,96
2023-02-14T20:33:45.166Z,96
2023-02-14T20:38:45.311Z,96
2023-02-14T20:43:43.055Z,96
2023-02-14T20:48:43.228Z,97
2023-02-14T20:53:42.113Z,97
2023-02-14T20:58:42.227Z,97
2023-02-14T21:03:41.447Z,97
2023-02-14T21:08:41.308Z,97
2023-02-14T21:13:41.249Z,98
2023-02-14T21:18:40.596Z,97
2023-02-14T21:23:38.789Z,97
2023-02-14T21:28:38.655Z,98
2023-02-14T21:33:37.913Z,98
2023-02-14T21:38:37.382Z,98
2023-02-14T21:43:36.917Z,98
2023-02-14T21:48:36.581Z,98
2023-02-14T21:53:36.822Z,98
2023-02-14T21:58:36.232Z,98
2023-02-14T21:59:59.814Z,98
2023-02-14T22:04:56.916Z,98
2023-02-14T22:09:56.411Z,98
2023-02-14T22:14:55.905Z,98
2023-02-14T22:19:55.500Z,98
2023-02-14T22:24:53.077Z,98
2023-02-14T22:29:52.844Z,98
2023-02-14T22:34:52.468Z,98
2023-02-14T22:39:51.852Z,98
2023-02-14T22:44:51.467Z,98
2023-02-14T22:49:50.685Z,99
2023-02-14T22:54:51.130Z,99
2023-02-14T22:59:17.347Z,99
2023-02-14T23:04:15.145Z,99
2023-02-14T23:09:14.510Z,99
2023-02-14T23:14:14.447Z,99
2023-02-14T23:19:13.624Z,99
2023-02-14T23:24:13.377Z,99
2023-02-14T23:29:13.426Z,99
2023-02-14T23:34:13.379Z,99
2023-02-14T23:39:12.749Z,99
2023-02-14T23:44:14.241Z,99
2023-02-14T23:49:10.462Z,99
2023-02-14T23:54:10.362Z,100
2023-02-14T23:58:55.888Z,100
